sensor_id;sensor_type;location;lat;lon;timestamp;P1;durP1;ratioP1;P2;durP2;ratioP2
1390;SDS011;690;51.454;7.194;2023-01-10T00:00:03;11.10;;;6.63;;
1390;SDS011;690;51.454;7.194;2023-01-10T00:02:31;14.50;;;7.50;;
1390;SDS011;690;51.454;7.194;2023-01-10T00:04:58;13.77;;;7.73;;
1390;SDS011;690;51.454;7.194;2023-01-10T00:07:26;13.33;;;8.20;;
1390;SDS011;690;51.454;7.194;2023-01-10T00:09:53;16.13;;;7.60;;
1390;SDS011;690;51.454;7.194;2023-01-10T00:12:19;17.93;;;7.70;;
1390;SDS011;690;51.454;7.194;2023-01-10T00:15:09;11.20;;;7.50;;
1390;SDS011;690;51.454;7.194;2023-01-10T00:17:36;17.27;;;8.83;;
1390;SDS011;690;51.454;7.194;2023-01-10T00:20:03;17.17;;;7.57;;
1390;SDS011;690;51.454;7.194;2023-01-10T00:22:32;18.90;;;7.90;;
1390;SDS011;690;51.454;7.194;2023-01-10T00:24:59;13.70;;;8.80;;
1390;SDS011;690;51.454;7.194;2023-01-10T00:27:25;13.00;;;7.70;;
1390;SDS011;690;51.454;7.194;2023-01-10T00:29:52;15.67;;;7.20;;
1390;SDS011;690;51.454;7.194;2023-01-10T00:32:20;16.53;;;8.50;;
1390;SDS011;690;51.454;7.194;2023-01-10T00:34:47;14.77;;;8.17;;
1390;SDS011;690;51.454;7.194;2023-01-10T00:37:14;16.50;;;7.60;;
1390;SDS011;690;51.454;7.194;2023-01-10T00:39:42;16.00;;;7.50;;
1390;SDS011;690;51.454;7.194;2023-01-10T00:42:09;19.63;;;8.60;;
1390;SDS011;690;51.454;7.194;2023-01-10T00:44:54;13.33;;;5.83;;
1390;SDS011;690;51.454;7.194;2023-01-10T00:47:21;21.97;;;8.47;;
1390;SDS011;690;51.454;7.194;2023-01-10T00:49:48;13.80;;;7.87;;
1390;SDS011;690;51.454;7.194;2023-01-10T00:52:14;14.73;;;7.97;;
1390;SDS011;690;51.454;7.194;2023-01-10T00:54:43;15.67;;;7.23;;
1390;SDS011;690;51.454;7.194;2023-01-10T00:57:10;17.00;;;7.30;;
1390;SDS011;690;51.454;7.194;2023-01-10T00:59:36;13.67;;;6.47;;
1390;SDS011;690;51.454;7.194;2023-01-10T01:02:03;19.33;;;8.00;;
1390;SDS011;690;51.454;7.194;2023-01-10T01:04:30;14.67;;;7.03;;
1390;SDS011;690;51.454;7.194;2023-01-10T01:06:58;16.27;;;7.60;;
1390;SDS011;690;51.454;7.194;2023-01-10T01:09:26;18.33;;;6.80;;
1390;SDS011;690;51.454;7.194;2023-01-10T01:11:54;16.80;;;6.97;;
1390;SDS011;690;51.454;7.194;2023-01-10T01:14:21;14.70;;;6.10;;
1390;SDS011;690;51.454;7.194;2023-01-10T01:16:48;11.00;;;6.97;;
1390;SDS011;690;51.454;7.194;2023-01-10T01:19:15;15.53;;;7.30;;
1390;SDS011;690;51.454;7.194;2023-01-10T01:21:42;13.93;;;7.07;;
1390;SDS011;690;51.454;7.194;2023-01-10T01:24:09;14.10;;;6.80;;
1390;SDS011;690;51.454;7.194;2023-01-10T01:26:36;14.23;;;6.90;;
1390;SDS011;690;51.454;7.194;2023-01-10T01:29:05;16.70;;;7.47;;
1390;SDS011;690;51.454;7.194;2023-01-10T01:31:32;10.20;;;6.70;;
1390;SDS011;690;51.454;7.194;2023-01-10T01:33:58;14.10;;;6.53;;
1390;SDS011;690;51.454;7.194;2023-01-10T01:36:25;18.03;;;6.67;;
1390;SDS011;690;51.454;7.194;2023-01-10T01:38:52;12.67;;;6.47;;
1390;SDS011;690;51.454;7.194;2023-01-10T01:41:19;12.90;;;5.53;;
1390;SDS011;690;51.454;7.194;2023-01-10T01:44:05;13.13;;;5.67;;
1390;SDS011;690;51.454;7.194;2023-01-10T01:46:35;10.37;;;6.57;;
1390;SDS011;690;51.454;7.194;2023-01-10T01:49:04;8.80;;;5.70;;
1390;SDS011;690;51.454;7.194;2023-01-10T01:51:37;14.70;;;5.93;;
1390;SDS011;690;51.454;7.194;2023-01-10T01:54:04;16.73;;;6.97;;
1390;SDS011;690;51.454;7.194;2023-01-10T01:56:36;12.13;;;6.10;;
1390;SDS011;690;51.454;7.194;2023-01-10T01:59:09;16.13;;;5.77;;
1390;SDS011;690;51.454;7.194;2023-01-10T02:01:39;13.50;;;6.30;;
1390;SDS011;690;51.454;7.194;2023-01-10T02:04:09;7.93;;;5.00;;
1390;SDS011;690;51.454;7.194;2023-01-10T02:06:40;10.13;;;5.10;;
1390;SDS011;690;51.454;7.194;2023-01-10T02:09:09;9.60;;;5.80;;
1390;SDS011;690;51.454;7.194;2023-01-10T02:11:41;8.97;;;4.83;;
1390;SDS011;690;51.454;7.194;2023-01-10T02:14:09;10.33;;;5.57;;
1390;SDS011;690;51.454;7.194;2023-01-10T02:16:37;12.47;;;4.77;;
1390;SDS011;690;51.454;7.194;2023-01-10T02:19:04;14.73;;;5.50;;
1390;SDS011;690;51.454;7.194;2023-01-10T02:21:40;10.23;;;5.00;;
1390;SDS011;690;51.454;7.194;2023-01-10T02:24:37;12.83;;;4.97;;
1390;SDS011;690;51.454;7.194;2023-01-10T02:27:20;15.63;;;5.63;;
1390;SDS011;690;51.454;7.194;2023-01-10T02:30:00;13.00;;;5.03;;
1390;SDS011;690;51.454;7.194;2023-01-10T02:32:41;17.10;;;6.53;;
1390;SDS011;690;51.454;7.194;2023-01-10T02:35:16;15.70;;;4.67;;
1390;SDS011;690;51.454;7.194;2023-01-10T02:37:57;11.53;;;4.73;;
1390;SDS011;690;51.454;7.194;2023-01-10T02:40:33;7.80;;;4.40;;
1390;SDS011;690;51.454;7.194;2023-01-10T02:43:08;11.80;;;4.10;;
1390;SDS011;690;51.454;7.194;2023-01-10T02:45:39;8.20;;;4.60;;
1390;SDS011;690;51.454;7.194;2023-01-10T02:48:12;8.37;;;4.43;;
1390;SDS011;690;51.454;7.194;2023-01-10T02:50:52;18.63;;;5.30;;
1390;SDS011;690;51.454;7.194;2023-01-10T02:53:25;9.70;;;4.20;;
1390;SDS011;690;51.454;7.194;2023-01-10T02:55:58;14.33;;;4.73;;
1390;SDS011;690;51.454;7.194;2023-01-10T02:58:40;13.13;;;4.87;;
1390;SDS011;690;51.454;7.194;2023-01-10T03:01:22;17.00;;;4.57;;
1390;SDS011;690;51.454;7.194;2023-01-10T03:04:01;10.83;;;4.43;;
1390;SDS011;690;51.454;7.194;2023-01-10T03:06:36;9.90;;;4.33;;
1390;SDS011;690;51.454;7.194;2023-01-10T03:09:10;12.23;;;4.07;;
1390;SDS011;690;51.454;7.194;2023-01-10T03:11:43;7.20;;;3.70;;
1390;SDS011;690;51.454;7.194;2023-01-10T03:14:13;10.83;;;4.80;;
1390;SDS011;690;51.454;7.194;2023-01-10T03:16:43;11.43;;;4.37;;
1390;SDS011;690;51.454;7.194;2023-01-10T03:19:16;9.73;;;4.60;;
1390;SDS011;690;51.454;7.194;2023-01-10T03:21:46;14.83;;;3.50;;
1390;SDS011;690;51.454;7.194;2023-01-10T03:24:18;8.90;;;3.50;;
1390;SDS011;690;51.454;7.194;2023-01-10T03:26:50;13.13;;;3.90;;
1390;SDS011;690;51.454;7.194;2023-01-10T03:29:24;13.83;;;3.80;;
1390;SDS011;690;51.454;7.194;2023-01-10T03:31:56;9.47;;;3.20;;
1390;SDS011;690;51.454;7.194;2023-01-10T03:34:27;8.20;;;3.33;;
1390;SDS011;690;51.454;7.194;2023-01-10T03:36:59;10.13;;;3.67;;
1390;SDS011;690;51.454;7.194;2023-01-10T03:39:32;17.63;;;3.40;;
1390;SDS011;690;51.454;7.194;2023-01-10T03:42:06;9.27;;;3.50;;
1390;SDS011;690;51.454;7.194;2023-01-10T03:44:37;9.70;;;3.80;;
1390;SDS011;690;51.454;7.194;2023-01-10T03:47:11;11.47;;;4.70;;
1390;SDS011;690;51.454;7.194;2023-01-10T03:49:44;9.90;;;3.70;;
1390;SDS011;690;51.454;7.194;2023-01-10T03:52:13;12.13;;;4.50;;
1390;SDS011;690;51.454;7.194;2023-01-10T03:54:43;17.67;;;5.00;;
1390;SDS011;690;51.454;7.194;2023-01-10T03:57:14;13.50;;;4.20;;
1390;SDS011;690;51.454;7.194;2023-01-10T03:59:49;13.80;;;4.13;;
1390;SDS011;690;51.454;7.194;2023-01-10T04:02:19;11.50;;;4.63;;
1390;SDS011;690;51.454;7.194;2023-01-10T04:04:47;13.80;;;4.67;;
1390;SDS011;690;51.454;7.194;2023-01-10T04:07:14;10.57;;;4.80;;
1390;SDS011;690;51.454;7.194;2023-01-10T04:09:41;12.10;;;3.90;;
1390;SDS011;690;51.454;7.194;2023-01-10T04:12:08;13.10;;;4.30;;
1390;SDS011;690;51.454;7.194;2023-01-10T04:14:35;6.07;;;3.97;;
1390;SDS011;690;51.454;7.194;2023-01-10T04:17:02;12.27;;;4.10;;
1390;SDS011;690;51.454;7.194;2023-01-10T04:19:30;9.23;;;5.03;;
1390;SDS011;690;51.454;7.194;2023-01-10T04:21:58;8.90;;;3.93;;
1390;SDS011;690;51.454;7.194;2023-01-10T04:24:25;11.07;;;4.40;;
1390;SDS011;690;51.454;7.194;2023-01-10T04:26:52;8.03;;;4.00;;
1390;SDS011;690;51.454;7.194;2023-01-10T04:29:18;13.87;;;4.33;;
1390;SDS011;690;51.454;7.194;2023-01-10T04:31:45;8.53;;;5.97;;
1390;SDS011;690;51.454;7.194;2023-01-10T04:34:12;12.03;;;4.60;;
1390;SDS011;690;51.454;7.194;2023-01-10T04:36:39;7.07;;;3.67;;
1390;SDS011;690;51.454;7.194;2023-01-10T04:39:07;11.83;;;5.00;;
1390;SDS011;690;51.454;7.194;2023-01-10T04:41:34;13.93;;;4.23;;
1390;SDS011;690;51.454;7.194;2023-01-10T04:44:01;10.67;;;3.80;;
1390;SDS011;690;51.454;7.194;2023-01-10T04:46:28;8.50;;;3.07;;
1390;SDS011;690;51.454;7.194;2023-01-10T04:48:55;13.07;;;3.90;;
1390;SDS011;690;51.454;7.194;2023-01-10T04:51:22;16.77;;;3.47;;
1390;SDS011;690;51.454;7.194;2023-01-10T04:53:49;9.87;;;3.90;;
1390;SDS011;690;51.454;7.194;2023-01-10T04:56:18;8.30;;;3.73;;
1390;SDS011;690;51.454;7.194;2023-01-10T04:58:47;10.30;;;5.10;;
1390;SDS011;690;51.454;7.194;2023-01-10T05:01:15;10.57;;;3.40;;
1390;SDS011;690;51.454;7.194;2023-01-10T05:03:45;9.37;;;3.93;;
1390;SDS011;690;51.454;7.194;2023-01-10T05:06:12;8.50;;;3.60;;
1390;SDS011;690;51.454;7.194;2023-01-10T05:08:39;10.90;;;4.07;;
1390;SDS011;690;51.454;7.194;2023-01-10T05:11:06;10.00;;;3.47;;
1390;SDS011;690;51.454;7.194;2023-01-10T05:13:34;12.77;;;4.90;;
1390;SDS011;690;51.454;7.194;2023-01-10T05:16:01;12.73;;;4.23;;
1390;SDS011;690;51.454;7.194;2023-01-10T05:18:28;10.50;;;4.53;;
1390;SDS011;690;51.454;7.194;2023-01-10T05:20:58;7.03;;;3.20;;
1390;SDS011;690;51.454;7.194;2023-01-10T05:23:25;8.13;;;3.60;;
1390;SDS011;690;51.454;7.194;2023-01-10T05:25:53;16.03;;;4.67;;
1390;SDS011;690;51.454;7.194;2023-01-10T05:28:20;13.03;;;4.87;;
1390;SDS011;690;51.454;7.194;2023-01-10T05:30:48;10.13;;;4.10;;
1390;SDS011;690;51.454;7.194;2023-01-10T05:33:15;15.40;;;5.07;;
1390;SDS011;690;51.454;7.194;2023-01-10T05:35:42;7.90;;;3.53;;
1390;SDS011;690;51.454;7.194;2023-01-10T05:38:09;9.80;;;4.00;;
1390;SDS011;690;51.454;7.194;2023-01-10T05:40:36;11.50;;;3.33;;
1390;SDS011;690;51.454;7.194;2023-01-10T05:43:02;9.03;;;4.07;;
1390;SDS011;690;51.454;7.194;2023-01-10T05:45:29;15.80;;;3.93;;
1390;SDS011;690;51.454;7.194;2023-01-10T05:47:57;10.03;;;4.20;;
1390;SDS011;690;51.454;7.194;2023-01-10T05:50:24;6.93;;;3.60;;
1390;SDS011;690;51.454;7.194;2023-01-10T05:52:51;18.67;;;5.23;;
1390;SDS011;690;51.454;7.194;2023-01-10T05:55:18;10.77;;;4.37;;
1390;SDS011;690;51.454;7.194;2023-01-10T05:57:45;11.03;;;4.23;;
1390;SDS011;690;51.454;7.194;2023-01-10T06:00:12;13.10;;;4.20;;
1390;SDS011;690;51.454;7.194;2023-01-10T06:02:40;14.43;;;4.10;;
1390;SDS011;690;51.454;7.194;2023-01-10T06:05:08;9.43;;;3.90;;
1390;SDS011;690;51.454;7.194;2023-01-10T06:07:35;10.10;;;3.40;;
1390;SDS011;690;51.454;7.194;2023-01-10T06:10:02;10.20;;;3.60;;
1390;SDS011;690;51.454;7.194;2023-01-10T06:12:30;12.33;;;4.43;;
1390;SDS011;690;51.454;7.194;2023-01-10T06:14:57;9.00;;;3.90;;
1390;SDS011;690;51.454;7.194;2023-01-10T06:17:23;17.37;;;4.03;;
1390;SDS011;690;51.454;7.194;2023-01-10T06:19:50;12.83;;;4.53;;
1390;SDS011;690;51.454;7.194;2023-01-10T06:22:18;18.10;;;4.57;;
1390;SDS011;690;51.454;7.194;2023-01-10T06:24:45;13.80;;;4.63;;
1390;SDS011;690;51.454;7.194;2023-01-10T06:27:12;13.70;;;3.77;;
1390;SDS011;690;51.454;7.194;2023-01-10T06:29:39;17.23;;;4.90;;
1390;SDS011;690;51.454;7.194;2023-01-10T06:32:06;10.93;;;3.40;;
1390;SDS011;690;51.454;7.194;2023-01-10T06:34:32;12.20;;;4.80;;
1390;SDS011;690;51.454;7.194;2023-01-10T06:37:00;15.40;;;5.90;;
1390;SDS011;690;51.454;7.194;2023-01-10T06:39:28;18.13;;;3.93;;
1390;SDS011;690;51.454;7.194;2023-01-10T06:41:55;17.00;;;4.00;;
1390;SDS011;690;51.454;7.194;2023-01-10T06:44:22;17.73;;;4.13;;
1390;SDS011;690;51.454;7.194;2023-01-10T06:46:48;17.47;;;4.47;;
1390;SDS011;690;51.454;7.194;2023-01-10T06:49:15;13.17;;;4.57;;
1390;SDS011;690;51.454;7.194;2023-01-10T06:51:42;13.60;;;3.93;;
1390;SDS011;690;51.454;7.194;2023-01-10T06:54:09;13.57;;;4.33;;
1390;SDS011;690;51.454;7.194;2023-01-10T06:56:37;14.50;;;4.70;;
1390;SDS011;690;51.454;7.194;2023-01-10T06:59:04;9.80;;;3.60;;
1390;SDS011;690;51.454;7.194;2023-01-10T07:01:31;16.67;;;4.07;;
1390;SDS011;690;51.454;7.194;2023-01-10T07:03:58;12.67;;;3.70;;
1390;SDS011;690;51.454;7.194;2023-01-10T07:06:24;14.90;;;4.97;;
1390;SDS011;690;51.454;7.194;2023-01-10T07:08:53;18.20;;;4.03;;
1390;SDS011;690;51.454;7.194;2023-01-10T07:11:20;16.73;;;4.37;;
1390;SDS011;690;51.454;7.194;2023-01-10T07:13:48;12.87;;;4.30;;
1390;SDS011;690;51.454;7.194;2023-01-10T07:16:18;19.60;;;4.80;;
1390;SDS011;690;51.454;7.194;2023-01-10T07:18:45;13.13;;;4.70;;
1390;SDS011;690;51.454;7.194;2023-01-10T07:21:11;14.30;;;5.03;;
1390;SDS011;690;51.454;7.194;2023-01-10T07:23:39;15.50;;;5.30;;
1390;SDS011;690;51.454;7.194;2023-01-10T07:26:08;20.03;;;6.57;;
1390;SDS011;690;51.454;7.194;2023-01-10T07:28:41;27.70;;;7.37;;
1390;SDS011;690;51.454;7.194;2023-01-10T07:31:09;18.97;;;7.57;;
1390;SDS011;690;51.454;7.194;2023-01-10T07:33:37;14.80;;;5.17;;
1390;SDS011;690;51.454;7.194;2023-01-10T07:36:04;18.60;;;5.90;;
1390;SDS011;690;51.454;7.194;2023-01-10T07:38:31;18.53;;;5.27;;
1390;SDS011;690;51.454;7.194;2023-01-10T07:41:00;13.73;;;4.33;;
1390;SDS011;690;51.454;7.194;2023-01-10T07:43:27;20.23;;;4.60;;
1390;SDS011;690;51.454;7.194;2023-01-10T07:45:56;23.77;;;6.13;;
1390;SDS011;690;51.454;7.194;2023-01-10T07:48:25;22.50;;;5.50;;
1390;SDS011;690;51.454;7.194;2023-01-10T07:50:54;15.10;;;4.60;;
1390;SDS011;690;51.454;7.194;2023-01-10T07:53:21;14.60;;;5.67;;
1390;SDS011;690;51.454;7.194;2023-01-10T07:55:48;16.23;;;5.10;;
1390;SDS011;690;51.454;7.194;2023-01-10T07:58:15;22.30;;;5.93;;
1390;SDS011;690;51.454;7.194;2023-01-10T08:00:42;21.07;;;5.53;;
1390;SDS011;690;51.454;7.194;2023-01-10T08:03:10;14.37;;;6.90;;
1390;SDS011;690;51.454;7.194;2023-01-10T08:05:38;16.43;;;5.67;;
1390;SDS011;690;51.454;7.194;2023-01-10T08:08:05;18.13;;;7.13;;
1390;SDS011;690;51.454;7.194;2023-01-10T08:10:33;15.63;;;5.47;;
1390;SDS011;690;51.454;7.194;2023-01-10T08:13:00;15.57;;;6.20;;
1390;SDS011;690;51.454;7.194;2023-01-10T08:15:27;12.33;;;4.77;;
1390;SDS011;690;51.454;7.194;2023-01-10T08:17:54;14.23;;;5.70;;
1390;SDS011;690;51.454;7.194;2023-01-10T08:20:24;18.40;;;6.20;;
1390;SDS011;690;51.454;7.194;2023-01-10T08:22:52;15.43;;;5.40;;
1390;SDS011;690;51.454;7.194;2023-01-10T08:25:19;20.13;;;5.23;;
1390;SDS011;690;51.454;7.194;2023-01-10T08:27:46;17.10;;;5.10;;
1390;SDS011;690;51.454;7.194;2023-01-10T08:30:13;14.70;;;5.80;;
1390;SDS011;690;51.454;7.194;2023-01-10T08:32:40;16.27;;;5.20;;
1390;SDS011;690;51.454;7.194;2023-01-10T08:35:07;14.87;;;4.73;;
1390;SDS011;690;51.454;7.194;2023-01-10T08:37:34;24.13;;;5.70;;
1390;SDS011;690;51.454;7.194;2023-01-10T08:40:03;20.83;;;5.97;;
1390;SDS011;690;51.454;7.194;2023-01-10T08:42:30;25.63;;;6.07;;
1390;SDS011;690;51.454;7.194;2023-01-10T08:44:57;19.10;;;5.97;;
1390;SDS011;690;51.454;7.194;2023-01-10T08:47:25;24.37;;;5.43;;
1390;SDS011;690;51.454;7.194;2023-01-10T08:49:52;15.53;;;5.07;;
1390;SDS011;690;51.454;7.194;2023-01-10T08:52:19;21.00;;;4.93;;
1390;SDS011;690;51.454;7.194;2023-01-10T08:54:46;22.93;;;5.60;;
1390;SDS011;690;51.454;7.194;2023-01-10T08:57:15;26.57;;;5.30;;
1390;SDS011;690;51.454;7.194;2023-01-10T08:59:42;16.80;;;5.60;;
1390;SDS011;690;51.454;7.194;2023-01-10T09:02:09;24.93;;;7.20;;
1390;SDS011;690;51.454;7.194;2023-01-10T09:04:38;17.47;;;4.43;;
1390;SDS011;690;51.454;7.194;2023-01-10T09:07:04;14.17;;;4.23;;
1390;SDS011;690;51.454;7.194;2023-01-10T09:09:31;18.43;;;5.93;;
1390;SDS011;690;51.454;7.194;2023-01-10T09:11:58;13.33;;;6.47;;
1390;SDS011;690;51.454;7.194;2023-01-10T09:14:26;21.30;;;5.77;;
1390;SDS011;690;51.454;7.194;2023-01-10T09:16:53;19.97;;;4.87;;
1390;SDS011;690;51.454;7.194;2023-01-10T09:19:20;17.60;;;5.67;;
1390;SDS011;690;51.454;7.194;2023-01-10T09:21:47;16.00;;;4.73;;
1390;SDS011;690;51.454;7.194;2023-01-10T09:24:14;22.47;;;5.20;;
1390;SDS011;690;51.454;7.194;2023-01-10T09:26:40;12.33;;;4.57;;
1390;SDS011;690;51.454;7.194;2023-01-10T09:29:08;23.03;;;5.83;;
1390;SDS011;690;51.454;7.194;2023-01-10T09:31:37;18.87;;;4.47;;
1390;SDS011;690;51.454;7.194;2023-01-10T09:34:03;22.37;;;6.33;;
1390;SDS011;690;51.454;7.194;2023-01-10T09:36:30;12.10;;;4.30;;
1390;SDS011;690;51.454;7.194;2023-01-10T09:38:57;23.27;;;4.90;;
1390;SDS011;690;51.454;7.194;2023-01-10T09:41:35;17.20;;;4.33;;
1390;SDS011;690;51.454;7.194;2023-01-10T09:44:16;21.17;;;4.90;;
1390;SDS011;690;51.454;7.194;2023-01-10T09:46:49;15.93;;;5.17;;
1390;SDS011;690;51.454;7.194;2023-01-10T09:49:23;18.00;;;5.03;;
1390;SDS011;690;51.454;7.194;2023-01-10T09:52:02;16.57;;;4.00;;
1390;SDS011;690;51.454;7.194;2023-01-10T09:54:36;9.90;;;4.60;;
1390;SDS011;690;51.454;7.194;2023-01-10T09:57:07;19.53;;;5.40;;
1390;SDS011;690;51.454;7.194;2023-01-10T09:59:41;18.50;;;4.50;;
1390;SDS011;690;51.454;7.194;2023-01-10T10:02:16;19.83;;;4.63;;
1390;SDS011;690;51.454;7.194;2023-01-10T10:04:52;25.03;;;5.50;;
1390;SDS011;690;51.454;7.194;2023-01-10T10:07:27;16.80;;;4.30;;
1390;SDS011;690;51.454;7.194;2023-01-10T10:09:54;16.70;;;4.47;;
1390;SDS011;690;51.454;7.194;2023-01-10T10:12:24;16.17;;;4.97;;
1390;SDS011;690;51.454;7.194;2023-01-10T10:14:58;15.53;;;5.07;;
1390;SDS011;690;51.454;7.194;2023-01-10T10:17:39;12.20;;;4.00;;
1390;SDS011;690;51.454;7.194;2023-01-10T10:23:11;11.77;;;4.40;;
1390;SDS011;690;51.454;7.194;2023-01-10T10:25:53;13.50;;;3.97;;
1390;SDS011;690;51.454;7.194;2023-01-10T10:28:34;15.00;;;4.50;;
1390;SDS011;690;51.454;7.194;2023-01-10T10:31:26;20.43;;;4.00;;
1390;SDS011;690;51.454;7.194;2023-01-10T10:34:02;17.13;;;4.27;;
1390;SDS011;690;51.454;7.194;2023-01-10T10:36:38;20.37;;;4.50;;
1390;SDS011;690;51.454;7.194;2023-01-10T10:39:09;22.37;;;4.87;;
1390;SDS011;690;51.454;7.194;2023-01-10T10:41:42;17.20;;;4.67;;
1390;SDS011;690;51.454;7.194;2023-01-10T10:44:17;16.30;;;4.40;;
1390;SDS011;690;51.454;7.194;2023-01-10T10:46:55;26.20;;;5.30;;
1390;SDS011;690;51.454;7.194;2023-01-10T10:49:27;19.63;;;5.53;;
1390;SDS011;690;51.454;7.194;2023-01-10T10:52:01;15.57;;;4.97;;
1390;SDS011;690;51.454;7.194;2023-01-10T10:54:35;13.33;;;4.00;;
1390;SDS011;690;51.454;7.194;2023-01-10T10:57:02;18.30;;;5.77;;
1390;SDS011;690;51.454;7.194;2023-01-10T10:59:29;15.83;;;3.50;;
1390;SDS011;690;51.454;7.194;2023-01-10T11:01:56;15.90;;;4.67;;
1390;SDS011;690;51.454;7.194;2023-01-10T11:04:26;13.83;;;4.00;;
1390;SDS011;690;51.454;7.194;2023-01-10T11:06:54;16.03;;;5.17;;
1390;SDS011;690;51.454;7.194;2023-01-10T11:09:21;14.13;;;4.30;;
1390;SDS011;690;51.454;7.194;2023-01-10T11:11:53;13.13;;;4.07;;
1390;SDS011;690;51.454;7.194;2023-01-10T11:17:16;12.13;;;4.00;;
1390;SDS011;690;51.454;7.194;2023-01-10T11:19:55;19.37;;;5.00;;
1390;SDS011;690;51.454;7.194;2023-01-10T11:22:24;23.27;;;5.90;;
1390;SDS011;690;51.454;7.194;2023-01-10T11:24:53;24.83;;;5.00;;
1390;SDS011;690;51.454;7.194;2023-01-10T11:27:23;21.60;;;4.77;;
1390;SDS011;690;51.454;7.194;2023-01-10T11:29:53;15.37;;;3.47;;
1390;SDS011;690;51.454;7.194;2023-01-10T11:32:23;13.47;;;3.50;;
1390;SDS011;690;51.454;7.194;2023-01-10T11:34:58;14.50;;;4.20;;
1390;SDS011;690;51.454;7.194;2023-01-10T11:37:27;25.37;;;3.70;;
1390;SDS011;690;51.454;7.194;2023-01-10T11:40:16;17.80;;;5.20;;
1390;SDS011;690;51.454;7.194;2023-01-10T11:42:47;17.60;;;4.20;;
1390;SDS011;690;51.454;7.194;2023-01-10T11:45:24;18.50;;;4.03;;
1390;SDS011;690;51.454;7.194;2023-01-10T11:47:58;11.47;;;3.63;;
1390;SDS011;690;51.454;7.194;2023-01-10T11:50:33;15.10;;;3.53;;
1390;SDS011;690;51.454;7.194;2023-01-10T11:53:02;15.60;;;3.90;;
1390;SDS011;690;51.454;7.194;2023-01-10T11:55:31;13.80;;;4.40;;
1390;SDS011;690;51.454;7.194;2023-01-10T11:58:03;13.13;;;3.60;;
1390;SDS011;690;51.454;7.194;2023-01-10T12:00:34;18.03;;;3.83;;
1390;SDS011;690;51.454;7.194;2023-01-10T12:03:15;12.87;;;3.50;;
1390;SDS011;690;51.454;7.194;2023-01-10T12:05:51;19.60;;;4.40;;
1390;SDS011;690;51.454;7.194;2023-01-10T12:08:23;17.73;;;4.10;;
1390;SDS011;690;51.454;7.194;2023-01-10T12:11:02;13.37;;;3.90;;
1390;SDS011;690;51.454;7.194;2023-01-10T12:13:40;18.67;;;5.80;;
1390;SDS011;690;51.454;7.194;2023-01-10T12:16:14;11.13;;;4.20;;
1390;SDS011;690;51.454;7.194;2023-01-10T12:18:42;21.30;;;4.67;;
1390;SDS011;690;51.454;7.194;2023-01-10T12:21:10;15.67;;;4.33;;
1390;SDS011;690;51.454;7.194;2023-01-10T12:23:40;16.60;;;3.90;;
1390;SDS011;690;51.454;7.194;2023-01-10T12:26:09;14.30;;;5.00;;
1390;SDS011;690;51.454;7.194;2023-01-10T12:28:38;22.90;;;3.90;;
1390;SDS011;690;51.454;7.194;2023-01-10T12:31:10;17.53;;;3.97;;
1390;SDS011;690;51.454;7.194;2023-01-10T12:33:40;16.40;;;4.50;;
1390;SDS011;690;51.454;7.194;2023-01-10T12:36:14;13.83;;;4.13;;
1390;SDS011;690;51.454;7.194;2023-01-10T12:38:52;17.40;;;4.07;;
1390;SDS011;690;51.454;7.194;2023-01-10T12:41:29;14.73;;;4.83;;
1390;SDS011;690;51.454;7.194;2023-01-10T12:44:21;14.87;;;4.37;;
1390;SDS011;690;51.454;7.194;2023-01-10T12:46:54;18.30;;;4.40;;
1390;SDS011;690;51.454;7.194;2023-01-10T12:49:24;11.10;;;5.03;;
1390;SDS011;690;51.454;7.194;2023-01-10T12:51:57;11.60;;;3.83;;
1390;SDS011;690;51.454;7.194;2023-01-10T12:54:28;17.03;;;4.23;;
1390;SDS011;690;51.454;7.194;2023-01-10T12:56:57;16.70;;;3.90;;
1390;SDS011;690;51.454;7.194;2023-01-10T12:59:27;13.63;;;3.93;;
1390;SDS011;690;51.454;7.194;2023-01-10T13:02:01;10.20;;;3.30;;
1390;SDS011;690;51.454;7.194;2023-01-10T13:04:32;15.63;;;3.60;;
1390;SDS011;690;51.454;7.194;2023-01-10T13:07:03;13.30;;;3.53;;
1390;SDS011;690;51.454;7.194;2023-01-10T13:09:30;11.50;;;2.87;;
1390;SDS011;690;51.454;7.194;2023-01-10T13:11:59;10.73;;;2.87;;
1390;SDS011;690;51.454;7.194;2023-01-10T13:14:33;14.40;;;3.97;;
1390;SDS011;690;51.454;7.194;2023-01-10T13:17:05;19.80;;;4.53;;
1390;SDS011;690;51.454;7.194;2023-01-10T13:19:42;13.57;;;3.80;;
1390;SDS011;690;51.454;7.194;2023-01-10T13:22:32;14.47;;;3.70;;
1390;SDS011;690;51.454;7.194;2023-01-10T13:25:00;14.30;;;3.43;;
1390;SDS011;690;51.454;7.194;2023-01-10T13:27:30;12.13;;;3.70;;
1390;SDS011;690;51.454;7.194;2023-01-10T13:30:01;16.37;;;4.17;;
1390;SDS011;690;51.454;7.194;2023-01-10T13:32:29;11.03;;;3.60;;
1390;SDS011;690;51.454;7.194;2023-01-10T13:35:08;14.93;;;3.33;;
1390;SDS011;690;51.454;7.194;2023-01-10T13:37:40;8.90;;;3.10;;
1390;SDS011;690;51.454;7.194;2023-01-10T13:40:16;12.13;;;3.00;;
1390;SDS011;690;51.454;7.194;2023-01-10T13:42:46;18.23;;;3.57;;
1390;SDS011;690;51.454;7.194;2023-01-10T13:58:00;22.77;;;3.97;;
1390;SDS011;690;51.454;7.194;2023-01-10T14:03:42;9.03;;;3.93;;
1390;SDS011;690;51.454;7.194;2023-01-10T14:06:13;10.77;;;2.70;;
1390;SDS011;690;51.454;7.194;2023-01-10T14:09:03;17.57;;;3.07;;
1390;SDS011;690;51.454;7.194;2023-01-10T14:11:47;6.73;;;2.80;;
1390;SDS011;690;51.454;7.194;2023-01-10T14:14:19;14.07;;;2.70;;
1390;SDS011;690;51.454;7.194;2023-01-10T14:16:49;13.47;;;2.90;;
1390;SDS011;690;51.454;7.194;2023-01-10T14:19:22;14.30;;;3.10;;
1390;SDS011;690;51.454;7.194;2023-01-10T14:21:53;8.43;;;3.33;;
1390;SDS011;690;51.454;7.194;2023-01-10T14:24:23;13.37;;;3.37;;
1390;SDS011;690;51.454;7.194;2023-01-10T14:26:52;11.93;;;3.20;;
1390;SDS011;690;51.454;7.194;2023-01-10T14:29:22;11.40;;;3.07;;
1390;SDS011;690;51.454;7.194;2023-01-10T14:31:52;16.00;;;2.73;;
1390;SDS011;690;51.454;7.194;2023-01-10T14:34:21;17.17;;;2.93;;
1390;SDS011;690;51.454;7.194;2023-01-10T14:36:52;10.83;;;3.67;;
1390;SDS011;690;51.454;7.194;2023-01-10T14:39:23;7.50;;;2.40;;
1390;SDS011;690;51.454;7.194;2023-01-10T14:41:52;14.77;;;3.07;;
1390;SDS011;690;51.454;7.194;2023-01-10T14:44:25;13.80;;;2.77;;
1390;SDS011;690;51.454;7.194;2023-01-10T14:46:56;15.77;;;3.17;;
1390;SDS011;690;51.454;7.194;2023-01-10T14:49:27;9.97;;;3.00;;
1390;SDS011;690;51.454;7.194;2023-01-10T14:52:09;11.27;;;3.93;;
1390;SDS011;690;51.454;7.194;2023-01-10T14:54:37;10.37;;;2.93;;
1390;SDS011;690;51.454;7.194;2023-01-10T14:57:04;9.70;;;3.10;;
1390;SDS011;690;51.454;7.194;2023-01-10T14:59:45;12.47;;;2.97;;
1390;SDS011;690;51.454;7.194;2023-01-10T15:02:13;12.60;;;2.93;;
1390;SDS011;690;51.454;7.194;2023-01-10T15:04:48;8.20;;;3.00;;
1390;SDS011;690;51.454;7.194;2023-01-10T15:07:18;13.73;;;2.40;;
1390;SDS011;690;51.454;7.194;2023-01-10T15:09:47;9.87;;;3.10;;
1390;SDS011;690;51.454;7.194;2023-01-10T15:12:15;7.20;;;2.27;;
1390;SDS011;690;51.454;7.194;2023-01-10T15:14:42;7.83;;;2.40;;
1390;SDS011;690;51.454;7.194;2023-01-10T15:17:12;11.30;;;2.57;;
1390;SDS011;690;51.454;7.194;2023-01-10T15:19:42;11.53;;;2.73;;
1390;SDS011;690;51.454;7.194;2023-01-10T15:24:56;13.73;;;2.87;;
1390;SDS011;690;51.454;7.194;2023-01-10T15:27:24;13.07;;;2.77;;
1390;SDS011;690;51.454;7.194;2023-01-10T15:29:52;9.83;;;4.77;;
1390;SDS011;690;51.454;7.194;2023-01-10T15:32:22;7.97;;;2.23;;
1390;SDS011;690;51.454;7.194;2023-01-10T15:34:51;10.00;;;2.60;;
1390;SDS011;690;51.454;7.194;2023-01-10T15:37:21;11.10;;;2.83;;
1390;SDS011;690;51.454;7.194;2023-01-10T15:39:51;7.03;;;2.90;;
1390;SDS011;690;51.454;7.194;2023-01-10T15:42:20;7.73;;;2.60;;
1390;SDS011;690;51.454;7.194;2023-01-10T15:44:48;12.40;;;2.90;;
1390;SDS011;690;51.454;7.194;2023-01-10T15:50:18;10.80;;;2.97;;
1390;SDS011;690;51.454;7.194;2023-01-10T15:52:47;11.40;;;2.67;;
1390;SDS011;690;51.454;7.194;2023-01-10T15:55:33;6.97;;;2.40;;
1390;SDS011;690;51.454;7.194;2023-01-10T15:58:09;11.40;;;2.87;;
1390;SDS011;690;51.454;7.194;2023-01-10T16:00:42;17.00;;;3.90;;
1390;SDS011;690;51.454;7.194;2023-01-10T16:03:13;17.20;;;3.10;;